Usk, WA (99180)

2:30 PM PST on December 27, 2014 (GMT -0800)
RAWS FAIRCHILD 36 RQF WA US | Change Station
CLOSE
Current Station
Personal Weather Station
Location: Cusick, WA
Elevation: 2450 ft
Nearby Weather Stations
Active Advisory: Winter Storm Warning

Elev 2450 ft 48.42 °N, 117.36 °W | Updated 35 minutes ago

Snow
Snow
30 °F
Feels Like 30 °F
N
0
Wind Variable Wind from NW
Gusts 2.0 mph

Today
High -- | Low -- °F
--% Chance of Precip.
Yesterday
High -- | Low -- °F
Precip. -- in
7:39 AM 4:01 PM
Waxing Crescent, 40% visible
Pressure 29.97 in
Visibility 0.5 miles
Clouds
Windchill 30 °F
Dew Point 28 °F
Humidity 92%
Rainfall 0.00 in
Snow Depth Not available.
UV Not available.
Pollen .10 out of 12
Air Quality Not available.
Flu Activity Not available.
SPECI KDEW 272211Z AUTO 15007KT 1/2SM SN FG VV005 00/M01 A2997 RMK AO2 P0002 T00001006

More Conditions Fewer Conditions

Pressure 29.97 in
Visibility 0.5 miles
Clouds
Windchill 30 °F
Dew Point 28 °F
Humidity 92%
Rainfall 0.00 in
Snow Depth Not available.
UV Not available.
Pollen .10 out of 12
Air Quality Not available.
Flu Activity Not available.
SPECI KDEW 272211Z AUTO 15007KT 1/2SM SN FG VV005 00/M01 A2997 RMK AO2 P0002 T00001006

More Conditions Fewer Conditions

10-Day Weather Forecast

Almanac

Astronomy

Dec. 27, 2014 Rise Set
Actual Time
Civil Twilight
Nautical Twilight
Astronomical Twilight
Moon
Length of Visible Light
Length of Day
Tomorrow will be .
, % of the Moon is Illuminated

Today's Extremes

State Highs State Lows

Community

WunderPhotos

Upload Photos

1,781,095 photos uploaded!

WunderBlogs® & News

Nearby

Air Quality

  Air Quality AQ Index Pollutant
Not available.

Snow Depth

Station Depth Elevation

Earthquake Activity

City Distance Mag. Time & Date
Minimum magnitude displayed is 2.5.

Coastal Water Temperatures

Place Temperature

Nearby Weather Stations